sensor_id;sensor_type;location;lat;lon;timestamp;P1;durP1;ratioP1;P2;durP2;ratioP2
51194;SDS011;37259;49.972;19.850;2023-03-01T00:00:42;26.3;;;15.6;;
51194;SDS011;37259;49.972;19.850;2023-03-01T00:01:42;26.3;;;15.6;;
51194;SDS011;37259;49.972;19.850;2023-03-01T00:02:42;26.3;;;15.6;;
51194;SDS011;37259;49.972;19.850;2023-03-01T00:03:42;26.3;;;15.6;;
51194;SDS011;37259;49.972;19.850;2023-03-01T00:04:42;26.3;;;15.6;;
51194;SDS011;37259;49.972;19.850;2023-03-01T00:05:43;26.3;;;15.6;;
51194;SDS011;37259;49.972;19.850;2023-03-01T00:06:42;26.3;;;15.6;;
51194;SDS011;37259;49.972;19.850;2023-03-01T00:07:42;26.3;;;15.6;;
51194;SDS011;37259;49.972;19.850;2023-03-01T00:08:42;26.3;;;15.6;;
51194;SDS011;37259;49.972;19.850;2023-03-01T00:09:42;26.3;;;15.6;;
51194;SDS011;37259;49.972;19.850;2023-03-01T00:10:42;26.3;;;15.6;;
51194;SDS011;37259;49.972;19.850;2023-03-01T00:11:42;26.3;;;15.6;;
51194;SDS011;37259;49.972;19.850;2023-03-01T00:12:42;26.3;;;15.6;;
51194;SDS011;37259;49.972;19.850;2023-03-01T00:13:42;26.3;;;15.6;;
51194;SDS011;37259;49.972;19.850;2023-03-01T00:14:42;26.3;;;15.6;;
51194;SDS011;37259;49.972;19.850;2023-03-01T00:15:42;26.3;;;15.6;;
51194;SDS011;37259;49.972;19.850;2023-03-01T00:16:42;26.3;;;15.6;;
51194;SDS011;37259;49.972;19.850;2023-03-01T00:17:42;24.4;;;14.8;;
51194;SDS011;37259;49.972;19.850;2023-03-01T00:18:42;24.4;;;14.8;;
51194;SDS011;37259;49.972;19.850;2023-03-01T00:19:42;24.4;;;14.8;;
51194;SDS011;37259;49.972;19.850;2023-03-01T00:20:42;24.4;;;14.8;;
51194;SDS011;37259;49.972;19.850;2023-03-01T00:21:42;24.4;;;14.8;;
51194;SDS011;37259;49.972;19.850;2023-03-01T00:22:42;24.4;;;14.8;;
51194;SDS011;37259;49.972;19.850;2023-03-01T00:23:42;24.4;;;14.8;;
51194;SDS011;37259;49.972;19.850;2023-03-01T00:24:42;24.4;;;14.8;;
51194;SDS011;37259;49.972;19.850;2023-03-01T00:25:42;24.4;;;14.8;;
51194;SDS011;37259;49.972;19.850;2023-03-01T00:26:42;24.4;;;14.8;;
51194;SDS011;37259;49.972;19.850;2023-03-01T00:27:42;24.4;;;14.8;;
51194;SDS011;37259;49.972;19.850;2023-03-01T00:28:42;24.4;;;14.8;;
51194;SDS011;37259;49.972;19.850;2023-03-01T00:29:42;24.4;;;14.8;;
51194;SDS011;37259;49.972;19.850;2023-03-01T00:30:42;24.4;;;14.8;;
51194;SDS011;37259;49.972;19.850;2023-03-01T00:31:42;24.4;;;14.8;;
51194;SDS011;37259;49.972;19.850;2023-03-01T00:32:42;24.4;;;14.8;;
51194;SDS011;37259;49.972;19.850;2023-03-01T00:33:42;24.4;;;14.8;;
51194;SDS011;37259;49.972;19.850;2023-03-01T00:34:42;24.4;;;14.8;;
51194;SDS011;37259;49.972;19.850;2023-03-01T00:35:42;24.4;;;14.8;;
51194;SDS011;37259;49.972;19.850;2023-03-01T00:36:42;24.4;;;14.8;;
51194;SDS011;37259;49.972;19.850;2023-03-01T00:37:42;24.4;;;14.8;;
51194;SDS011;37259;49.972;19.850;2023-03-01T00:38:43;24.4;;;14.8;;
51194;SDS011;37259;49.972;19.850;2023-03-01T00:39:42;24.4;;;14.8;;
51194;SDS011;37259;49.972;19.850;2023-03-01T00:40:42;24.4;;;14.8;;
51194;SDS011;37259;49.972;19.850;2023-03-01T00:41:42;24.4;;;14.8;;
51194;SDS011;37259;49.972;19.850;2023-03-01T00:42:42;24.4;;;14.8;;
51194;SDS011;37259;49.972;19.850;2023-03-01T00:43:42;24.4;;;14.8;;
51194;SDS011;37259;49.972;19.850;2023-03-01T00:44:42;24.4;;;14.8;;
51194;SDS011;37259;49.972;19.850;2023-03-01T00:45:42;24.4;;;14.8;;
51194;SDS011;37259;49.972;19.850;2023-03-01T00:46:42;24.4;;;14.8;;
51194;SDS011;37259;49.972;19.850;2023-03-01T00:47:42;20.5;;;13.8;;
51194;SDS011;37259;49.972;19.850;2023-03-01T00:48:42;20.5;;;13.8;;
51194;SDS011;37259;49.972;19.850;2023-03-01T00:49:42;20.5;;;13.8;;
51194;SDS011;37259;49.972;19.850;2023-03-01T00:50:42;20.5;;;13.8;;
51194;SDS011;37259;49.972;19.850;2023-03-01T00:51:42;20.5;;;13.8;;
51194;SDS011;37259;49.972;19.850;2023-03-01T00:52:42;20.5;;;13.8;;
51194;SDS011;37259;49.972;19.850;2023-03-01T00:53:42;20.5;;;13.8;;
51194;SDS011;37259;49.972;19.850;2023-03-01T00:54:42;20.5;;;13.8;;
51194;SDS011;37259;49.972;19.850;2023-03-01T00:55:42;20.5;;;13.8;;
51194;SDS011;37259;49.972;19.850;2023-03-01T00:56:42;20.5;;;13.8;;
51194;SDS011;37259;49.972;19.850;2023-03-01T00:57:42;20.5;;;13.8;;
51194;SDS011;37259;49.972;19.850;2023-03-01T00:58:42;20.5;;;13.8;;
51194;SDS011;37259;49.972;19.850;2023-03-01T00:59:42;20.5;;;13.8;;
51194;SDS011;37259;49.972;19.850;2023-03-01T01:00:42;20.5;;;13.8;;
51194;SDS011;37259;49.972;19.850;2023-03-01T01:01:42;20.5;;;13.8;;
51194;SDS011;37259;49.972;19.850;2023-03-01T01:02:42;20.5;;;13.8;;
51194;SDS011;37259;49.972;19.850;2023-03-01T01:03:42;20.5;;;13.8;;
51194;SDS011;37259;49.972;19.850;2023-03-01T01:04:42;20.5;;;13.8;;
51194;SDS011;37259;49.972;19.850;2023-03-01T01:05:42;20.5;;;13.8;;
51194;SDS011;37259;49.972;19.850;2023-03-01T01:06:42;20.5;;;13.8;;
51194;SDS011;37259;49.972;19.850;2023-03-01T01:07:42;20.5;;;13.8;;
51194;SDS011;37259;49.972;19.850;2023-03-01T01:08:42;20.5;;;13.8;;
51194;SDS011;37259;49.972;19.850;2023-03-01T01:09:42;20.5;;;13.8;;
51194;SDS011;37259;49.972;19.850;2023-03-01T01:10:42;20.5;;;13.8;;
51194;SDS011;37259;49.972;19.850;2023-03-01T01:11:42;20.5;;;13.8;;
51194;SDS011;37259;49.972;19.850;2023-03-01T01:12:42;20.5;;;13.8;;
51194;SDS011;37259;49.972;19.850;2023-03-01T01:13:43;20.5;;;13.8;;
51194;SDS011;37259;49.972;19.850;2023-03-01T01:14:42;20.5;;;13.8;;
51194;SDS011;37259;49.972;19.850;2023-03-01T01:15:42;20.5;;;13.8;;
51194;SDS011;37259;49.972;19.850;2023-03-01T01:16:42;20.5;;;13.8;;
51194;SDS011;37259;49.972;19.850;2023-03-01T01:17:42;20;;;12.1;;
51194;SDS011;37259;49.972;19.850;2023-03-01T01:18:42;20;;;12.1;;
51194;SDS011;37259;49.972;19.850;2023-03-01T01:19:42;20;;;12.1;;
51194;SDS011;37259;49.972;19.850;2023-03-01T01:20:42;20;;;12.1;;
51194;SDS011;37259;49.972;19.850;2023-03-01T01:21:42;20;;;12.1;;
51194;SDS011;37259;49.972;19.850;2023-03-01T01:22:42;20;;;12.1;;
51194;SDS011;37259;49.972;19.850;2023-03-01T01:23:42;20;;;12.1;;
51194;SDS011;37259;49.972;19.850;2023-03-01T01:24:42;20;;;12.1;;
51194;SDS011;37259;49.972;19.850;2023-03-01T01:25:42;20;;;12.1;;
51194;SDS011;37259;49.972;19.850;2023-03-01T01:26:42;20;;;12.1;;
51194;SDS011;37259;49.972;19.850;2023-03-01T01:27:42;20;;;12.1;;
51194;SDS011;37259;49.972;19.850;2023-03-01T01:28:42;20;;;12.1;;
51194;SDS011;37259;49.972;19.850;2023-03-01T01:29:42;20;;;12.1;;
51194;SDS011;37259;49.972;19.850;2023-03-01T01:30:42;20;;;12.1;;
51194;SDS011;37259;49.972;19.850;2023-03-01T01:31:42;20;;;12.1;;
51194;SDS011;37259;49.972;19.850;2023-03-01T01:32:42;20;;;12.1;;
51194;SDS011;37259;49.972;19.850;2023-03-01T01:33:42;20;;;12.1;;
51194;SDS011;37259;49.972;19.850;2023-03-01T01:34:42;20;;;12.1;;
51194;SDS011;37259;49.972;19.850;2023-03-01T01:35:44;20;;;12.1;;
51194;SDS011;37259;49.972;19.850;2023-03-01T01:36:42;20;;;12.1;;
51194;SDS011;37259;49.972;19.850;2023-03-01T01:37:42;20;;;12.1;;
51194;SDS011;37259;49.972;19.850;2023-03-01T01:38:42;20;;;12.1;;
51194;SDS011;37259;49.972;19.850;2023-03-01T01:39:42;20;;;12.1;;
51194;SDS011;37259;49.972;19.850;2023-03-01T01:40:42;20;;;12.1;;
51194;SDS011;37259;49.972;19.850;2023-03-01T01:41:42;20;;;12.1;;
51194;SDS011;37259;49.972;19.850;2023-03-01T01:42:42;20;;;12.1;;
51194;SDS011;37259;49.972;19.850;2023-03-01T01:43:43;20;;;12.1;;
51194;SDS011;37259;49.972;19.850;2023-03-01T01:44:42;20;;;12.1;;
51194;SDS011;37259;49.972;19.850;2023-03-01T01:45:42;20;;;12.1;;
51194;SDS011;37259;49.972;19.850;2023-03-01T01:46:42;20;;;12.1;;
51194;SDS011;37259;49.972;19.850;2023-03-01T01:47:42;26.3;;;15.3;;
51194;SDS011;37259;49.972;19.850;2023-03-01T01:48:43;26.3;;;15.3;;
51194;SDS011;37259;49.972;19.850;2023-03-01T01:49:42;26.3;;;15.3;;
51194;SDS011;37259;49.972;19.850;2023-03-01T01:50:42;26.3;;;15.3;;
51194;SDS011;37259;49.972;19.850;2023-03-01T01:51:42;26.3;;;15.3;;
51194;SDS011;37259;49.972;19.850;2023-03-01T01:52:42;26.3;;;15.3;;
51194;SDS011;37259;49.972;19.850;2023-03-01T01:53:42;26.3;;;15.3;;
51194;SDS011;37259;49.972;19.850;2023-03-01T01:54:43;26.3;;;15.3;;
51194;SDS011;37259;49.972;19.850;2023-03-01T01:55:43;26.3;;;15.3;;
51194;SDS011;37259;49.972;19.850;2023-03-01T01:56:42;26.3;;;15.3;;
51194;SDS011;37259;49.972;19.850;2023-03-01T01:57:43;26.3;;;15.3;;
51194;SDS011;37259;49.972;19.850;2023-03-01T01:58:42;26.3;;;15.3;;
51194;SDS011;37259;49.972;19.850;2023-03-01T01:59:43;26.3;;;15.3;;
51194;SDS011;37259;49.972;19.850;2023-03-01T02:00:42;26.3;;;15.3;;
51194;SDS011;37259;49.972;19.850;2023-03-01T02:01:42;26.3;;;15.3;;
51194;SDS011;37259;49.972;19.850;2023-03-01T02:02:42;26.3;;;15.3;;
51194;SDS011;37259;49.972;19.850;2023-03-01T02:03:42;26.3;;;15.3;;
51194;SDS011;37259;49.972;19.850;2023-03-01T02:04:42;26.3;;;15.3;;
51194;SDS011;37259;49.972;19.850;2023-03-01T02:05:43;26.3;;;15.3;;
51194;SDS011;37259;49.972;19.850;2023-03-01T02:06:44;26.3;;;15.3;;
51194;SDS011;37259;49.972;19.850;2023-03-01T02:07:42;26.3;;;15.3;;
51194;SDS011;37259;49.972;19.850;2023-03-01T02:08:42;26.3;;;15.3;;
51194;SDS011;37259;49.972;19.850;2023-03-01T02:09:43;26.3;;;15.3;;
51194;SDS011;37259;49.972;19.850;2023-03-01T02:10:42;26.3;;;15.3;;
51194;SDS011;37259;49.972;19.850;2023-03-01T02:11:42;26.3;;;15.3;;
51194;SDS011;37259;49.972;19.850;2023-03-01T02:12:42;26.3;;;15.3;;
51194;SDS011;37259;49.972;19.850;2023-03-01T02:13:42;26.3;;;15.3;;
51194;SDS011;37259;49.972;19.850;2023-03-01T02:14:42;26.3;;;15.3;;
51194;SDS011;37259;49.972;19.850;2023-03-01T02:15:42;26.3;;;15.3;;
51194;SDS011;37259;49.972;19.850;2023-03-01T02:16:42;26.3;;;15.3;;
51194;SDS011;37259;49.972;19.850;2023-03-01T02:17:42;31;;;18.3;;
51194;SDS011;37259;49.972;19.850;2023-03-01T02:18:42;31;;;18.3;;
51194;SDS011;37259;49.972;19.850;2023-03-01T02:19:44;31;;;18.3;;
51194;SDS011;37259;49.972;19.850;2023-03-01T02:20:44;31;;;18.3;;
51194;SDS011;37259;49.972;19.850;2023-03-01T02:21:44;31;;;18.3;;
51194;SDS011;37259;49.972;19.850;2023-03-01T02:22:42;31;;;18.3;;
51194;SDS011;37259;49.972;19.850;2023-03-01T02:23:42;31;;;18.3;;
51194;SDS011;37259;49.972;19.850;2023-03-01T02:24:45;31;;;18.3;;
51194;SDS011;37259;49.972;19.850;2023-03-01T02:25:44;31;;;18.3;;
51194;SDS011;37259;49.972;19.850;2023-03-01T02:26:42;31;;;18.3;;
51194;SDS011;37259;49.972;19.850;2023-03-01T02:27:44;31;;;18.3;;
51194;SDS011;37259;49.972;19.850;2023-03-01T02:28:42;31;;;18.3;;
51194;SDS011;37259;49.972;19.850;2023-03-01T02:29:42;31;;;18.3;;
51194;SDS011;37259;49.972;19.850;2023-03-01T02:30:42;31;;;18.3;;
51194;SDS011;37259;49.972;19.850;2023-03-01T02:31:42;31;;;18.3;;
51194;SDS011;37259;49.972;19.850;2023-03-01T02:32:42;31;;;18.3;;
51194;SDS011;37259;49.972;19.850;2023-03-01T02:33:42;31;;;18.3;;
51194;SDS011;37259;49.972;19.850;2023-03-01T02:34:42;31;;;18.3;;
51194;SDS011;37259;49.972;19.850;2023-03-01T02:35:42;31;;;18.3;;
51194;SDS011;37259;49.972;19.850;2023-03-01T02:36:43;31;;;18.3;;
51194;SDS011;37259;49.972;19.850;2023-03-01T02:37:42;31;;;18.3;;
51194;SDS011;37259;49.972;19.850;2023-03-01T02:38:42;31;;;18.3;;
51194;SDS011;37259;49.972;19.850;2023-03-01T02:39:42;31;;;18.3;;
51194;SDS011;37259;49.972;19.850;2023-03-01T02:40:42;31;;;18.3;;
51194;SDS011;37259;49.972;19.850;2023-03-01T02:41:42;31;;;18.3;;
51194;SDS011;37259;49.972;19.850;2023-03-01T02:42:43;31;;;18.3;;
51194;SDS011;37259;49.972;19.850;2023-03-01T02:43:42;31;;;18.3;;
51194;SDS011;37259;49.972;19.850;2023-03-01T02:44:42;31;;;18.3;;
51194;SDS011;37259;49.972;19.850;2023-03-01T02:45:43;31;;;18.3;;
51194;SDS011;37259;49.972;19.850;2023-03-01T02:46:43;31;;;18.3;;
51194;SDS011;37259;49.972;19.850;2023-03-01T02:47:42;43.5;;;24.7;;
51194;SDS011;37259;49.972;19.850;2023-03-01T02:48:43;43.5;;;24.7;;
51194;SDS011;37259;49.972;19.850;2023-03-01T02:49:42;43.5;;;24.7;;
51194;SDS011;37259;49.972;19.850;2023-03-01T02:50:45;43.5;;;24.7;;
51194;SDS011;37259;49.972;19.850;2023-03-01T02:51:43;43.5;;;24.7;;
51194;SDS011;37259;49.972;19.850;2023-03-01T02:52:43;43.5;;;24.7;;
51194;SDS011;37259;49.972;19.850;2023-03-01T02:53:45;43.5;;;24.7;;
51194;SDS011;37259;49.972;19.850;2023-03-01T02:54:43;43.5;;;24.7;;
51194;SDS011;37259;49.972;19.850;2023-03-01T02:55:42;43.5;;;24.7;;
51194;SDS011;37259;49.972;19.850;2023-03-01T02:56:42;43.5;;;24.7;;
51194;SDS011;37259;49.972;19.850;2023-03-01T02:57:43;43.5;;;24.7;;
51194;SDS011;37259;49.972;19.850;2023-03-01T02:58:42;43.5;;;24.7;;
51194;SDS011;37259;49.972;19.850;2023-03-01T02:59:42;43.5;;;24.7;;
51194;SDS011;37259;49.972;19.850;2023-03-01T03:00:42;43.5;;;24.7;;
51194;SDS011;37259;49.972;19.850;2023-03-01T03:01:42;43.5;;;24.7;;
51194;SDS011;37259;49.972;19.850;2023-03-01T03:02:42;43.5;;;24.7;;
51194;SDS011;37259;49.972;19.850;2023-03-01T03:03:42;43.5;;;24.7;;
51194;SDS011;37259;49.972;19.850;2023-03-01T03:04:42;43.5;;;24.7;;
51194;SDS011;37259;49.972;19.850;2023-03-01T03:05:42;43.5;;;24.7;;
51194;SDS011;37259;49.972;19.850;2023-03-01T03:06:42;43.5;;;24.7;;
51194;SDS011;37259;49.972;19.850;2023-03-01T03:07:43;43.5;;;24.7;;
51194;SDS011;37259;49.972;19.850;2023-03-01T03:08:42;43.5;;;24.7;;
51194;SDS011;37259;49.972;19.850;2023-03-01T03:09:42;43.5;;;24.7;;
51194;SDS011;37259;49.972;19.850;2023-03-01T03:10:42;43.5;;;24.7;;
51194;SDS011;37259;49.972;19.850;2023-03-01T03:11:42;43.5;;;24.7;;
51194;SDS011;37259;49.972;19.850;2023-03-01T03:12:42;43.5;;;24.7;;
51194;SDS011;37259;49.972;19.850;2023-03-01T03:13:42;43.5;;;24.7;;
51194;SDS011;37259;49.972;19.850;2023-03-01T03:14:42;43.5;;;24.7;;
51194;SDS011;37259;49.972;19.850;2023-03-01T03:15:42;43.5;;;24.7;;
51194;SDS011;37259;49.972;19.850;2023-03-01T03:16:42;43.5;;;24.7;;
51194;SDS011;37259;49.972;19.850;2023-03-01T03:17:42;41.7;;;25.5;;
51194;SDS011;37259;49.972;19.850;2023-03-01T03:18:42;41.7;;;25.5;;
51194;SDS011;37259;49.972;19.850;2023-03-01T03:19:42;41.7;;;25.5;;
51194;SDS011;37259;49.972;19.850;2023-03-01T03:20:42;41.7;;;25.5;;
51194;SDS011;37259;49.972;19.850;2023-03-01T03:21:42;41.7;;;25.5;;
51194;SDS011;37259;49.972;19.850;2023-03-01T03:22:42;41.7;;;25.5;;
51194;SDS011;37259;49.972;19.850;2023-03-01T03:23:42;41.7;;;25.5;;
51194;SDS011;37259;49.972;19.850;2023-03-01T03:24:42;41.7;;;25.5;;
51194;SDS011;37259;49.972;19.850;2023-03-01T03:25:42;41.7;;;25.5;;
51194;SDS011;37259;49.972;19.850;2023-03-01T03:26:42;41.7;;;25.5;;
51194;SDS011;37259;49.972;19.850;2023-03-01T03:27:43;41.7;;;25.5;;
51194;SDS011;37259;49.972;19.850;2023-03-01T03:28:42;41.7;;;25.5;;
51194;SDS011;37259;49.972;19.850;2023-03-01T03:29:42;41.7;;;25.5;;
51194;SDS011;37259;49.972;19.850;2023-03-01T03:30:42;41.7;;;25.5;;
51194;SDS011;37259;49.972;19.850;2023-03-01T03:31:42;41.7;;;25.5;;
51194;SDS011;37259;49.972;19.850;2023-03-01T03:32:42;41.7;;;25.5;;
51194;SDS011;37259;49.972;19.850;2023-03-01T03:33:42;41.7;;;25.5;;
51194;SDS011;37259;49.972;19.850;2023-03-01T03:34:42;41.7;;;25.5;;
51194;SDS011;37259;49.972;19.850;2023-03-01T03:35:42;41.7;;;25.5;;
51194;SDS011;37259;49.972;19.850;2023-03-01T03:36:42;41.7;;;25.5;;
51194;SDS011;37259;49.972;19.850;2023-03-01T03:37:42;41.7;;;25.5;;
51194;SDS011;37259;49.972;19.850;2023-03-01T03:38:42;41.7;;;25.5;;
51194;SDS011;37259;49.972;19.850;2023-03-01T03:39:42;41.7;;;25.5;;
51194;SDS011;37259;49.972;19.850;2023-03-01T03:40:43;41.7;;;25.5;;
51194;SDS011;37259;49.972;19.850;2023-03-01T03:41:42;41.7;;;25.5;;
51194;SDS011;37259;49.972;19.850;2023-03-01T03:42:42;41.7;;;25.5;;
51194;SDS011;37259;49.972;19.850;2023-03-01T03:43:43;41.7;;;25.5;;
51194;SDS011;37259;49.972;19.850;2023-03-01T03:44:42;41.7;;;25.5;;
51194;SDS011;37259;49.972;19.850;2023-03-01T03:45:43;41.7;;;25.5;;
51194;SDS011;37259;49.972;19.850;2023-03-01T03:46:42;46.5;;;29.3;;
51194;SDS011;37259;49.972;19.850;2023-03-01T03:47:42;46.5;;;29.3;;
51194;SDS011;37259;49.972;19.850;2023-03-01T03:48:42;46.5;;;29.3;;
51194;SDS011;37259;49.972;19.850;2023-03-01T03:49:42;46.5;;;29.3;;
51194;SDS011;37259;49.972;19.850;2023-03-01T03:50:46;46.5;;;29.3;;
51194;SDS011;37259;49.972;19.850;2023-03-01T03:51:42;46.5;;;29.3;;
51194;SDS011;37259;49.972;19.850;2023-03-01T03:52:42;46.5;;;29.3;;
51194;SDS011;37259;49.972;19.850;2023-03-01T03:53:42;46.5;;;29.3;;
51194;SDS011;37259;49.972;19.850;2023-03-01T03:54:42;46.5;;;29.3;;
51194;SDS011;37259;49.972;19.850;2023-03-01T03:55:42;46.5;;;29.3;;
51194;SDS011;37259;49.972;19.850;2023-03-01T03:56:42;46.5;;;29.3;;
51194;SDS011;37259;49.972;19.850;2023-03-01T03:57:42;46.5;;;29.3;;
51194;SDS011;37259;49.972;19.850;2023-03-01T03:58:42;46.5;;;29.3;;
51194;SDS011;37259;49.972;19.850;2023-03-01T03:59:42;46.5;;;29.3;;
51194;SDS011;37259;49.972;19.850;2023-03-01T04:00:42;46.5;;;29.3;;
51194;SDS011;37259;49.972;19.850;2023-03-01T04:01:42;46.5;;;29.3;;
51194;SDS011;37259;49.972;19.850;2023-03-01T04:02:42;46.5;;;29.3;;
51194;SDS011;37259;49.972;19.850;2023-03-01T04:03:42;46.5;;;29.3;;
51194;SDS011;37259;49.972;19.850;2023-03-01T04:04:42;46.5;;;29.3;;
51194;SDS011;37259;49.972;19.850;2023-03-01T04:05:42;46.5;;;29.3;;
51194;SDS011;37259;49.972;19.850;2023-03-01T04:06:42;46.5;;;29.3;;
51194;SDS011;37259;49.972;19.850;2023-03-01T04:07:42;46.5;;;29.3;;
51194;SDS011;37259;49.972;19.850;2023-03-01T04:08:42;46.5;;;29.3;;
51194;SDS011;37259;49.972;19.850;2023-03-01T04:09:42;46.5;;;29.3;;
51194;SDS011;37259;49.972;19.850;2023-03-01T04:10:43;46.5;;;29.3;;
51194;SDS011;37259;49.972;19.850;2023-03-01T04:11:42;46.5;;;29.3;;
51194;SDS011;37259;49.972;19.850;2023-03-01T04:12:42;46.5;;;29.3;;
51194;SDS011;37259;49.972;19.850;2023-03-01T04:13:42;46.5;;;29.3;;
51194;SDS011;37259;49.972;19.850;2023-03-01T04:14:42;46.5;;;29.3;;
51194;SDS011;37259;49.972;19.850;2023-03-01T04:15:42;46.5;;;29.3;;
51194;SDS011;37259;49.972;19.850;2023-03-01T04:16:42;41;;;29.1;;
51194;SDS011;37259;49.972;19.850;2023-03-01T04:17:43;41;;;29.1;;
51194;SDS011;37259;49.972;19.850;2023-03-01T04:18:42;41;;;29.1;;
51194;SDS011;37259;49.972;19.850;2023-03-01T04:19:42;41;;;29.1;;
51194;SDS011;37259;49.972;19.850;2023-03-01T04:20:42;41;;;29.1;;
51194;SDS011;37259;49.972;19.850;2023-03-01T04:21:42;41;;;29.1;;
51194;SDS011;37259;49.972;19.850;2023-03-01T04:22:42;41;;;29.1;;
51194;SDS011;37259;49.972;19.850;2023-03-01T04:24:42;41;;;29.1;;
51194;SDS011;37259;49.972;19.850;2023-03-01T04:25:42;41;;;29.1;;
51194;SDS011;37259;49.972;19.850;2023-03-01T04:26:42;41;;;29.1;;
51194;SDS011;37259;49.972;19.850;2023-03-01T04:27:42;41;;;29.1;;
51194;SDS011;37259;49.972;19.850;2023-03-01T04:28:42;41;;;29.1;;
51194;SDS011;37259;49.972;19.850;2023-03-01T04:29:42;41;;;29.1;;
51194;SDS011;37259;49.972;19.850;2023-03-01T04:30:42;41;;;29.1;;
51194;SDS011;37259;49.972;19.850;2023-03-01T04:31:42;41;;;29.1;;
51194;SDS011;37259;49.972;19.850;2023-03-01T04:32:42;41;;;29.1;;
51194;SDS011;37259;49.972;19.850;2023-03-01T04:33:43;41;;;29.1;;
51194;SDS011;37259;49.972;19.850;2023-03-01T04:34:42;41;;;29.1;;
51194;SDS011;37259;49.972;19.850;2023-03-01T04:35:42;41;;;29.1;;
51194;SDS011;37259;49.972;19.850;2023-03-01T04:36:42;41;;;29.1;;
51194;SDS011;37259;49.972;19.850;2023-03-01T04:37:42;41;;;29.1;;
51194;SDS011;37259;49.972;19.850;2023-03-01T04:38:42;41;;;29.1;;
51194;SDS011;37259;49.972;19.850;2023-03-01T04:39:42;41;;;29.1;;
51194;SDS011;37259;49.972;19.850;2023-03-01T04:40:42;41;;;29.1;;
51194;SDS011;37259;49.972;19.850;2023-03-01T04:41:42;41;;;29.1;;
51194;SDS011;37259;49.972;19.850;2023-03-01T04:42:42;41;;;29.1;;
51194;SDS011;37259;49.972;19.850;2023-03-01T04:43:42;41;;;29.1;;
51194;SDS011;37259;49.972;19.850;2023-03-01T04:44:42;41;;;29.1;;
51194;SDS011;37259;49.972;19.850;2023-03-01T04:45:42;41;;;29.1;;
51194;SDS011;37259;49.972;19.850;2023-03-01T04:46:42;38.1;;;24.2;;
51194;SDS011;37259;49.972;19.850;2023-03-01T04:47:42;38.1;;;24.2;;
51194;SDS011;37259;49.972;19.850;2023-03-01T04:48:43;38.1;;;24.2;;
51194;SDS011;37259;49.972;19.850;2023-03-01T04:49:42;38.1;;;24.2;;
51194;SDS011;37259;49.972;19.850;2023-03-01T04:50:42;38.1;;;24.2;;
51194;SDS011;37259;49.972;19.850;2023-03-01T04:51:42;38.1;;;24.2;;
51194;SDS011;37259;49.972;19.850;2023-03-01T04:52:42;38.1;;;24.2;;
51194;SDS011;37259;49.972;19.850;2023-03-01T04:53:42;38.1;;;24.2;;
51194;SDS011;37259;49.972;19.850;2023-03-01T04:54:42;38.1;;;24.2;;
51194;SDS011;37259;49.972;19.850;2023-03-01T04:55:42;38.1;;;24.2;;
51194;SDS011;37259;49.972;19.850;2023-03-01T04:56:42;38.1;;;24.2;;
51194;SDS011;37259;49.972;19.850;2023-03-01T04:57:42;38.1;;;24.2;;
51194;SDS011;37259;49.972;19.850;2023-03-01T04:58:42;38.1;;;24.2;;
51194;SDS011;37259;49.972;19.850;2023-03-01T04:59:42;38.1;;;24.2;;
51194;SDS011;37259;49.972;19.850;2023-03-01T05:00:42;38.1;;;24.2;;
51194;SDS011;37259;49.972;19.850;2023-03-01T05:01:42;38.1;;;24.2;;
51194;SDS011;37259;49.972;19.850;2023-03-01T05:02:42;38.1;;;24.2;;
51194;SDS011;37259;49.972;19.850;2023-03-01T05:03:42;38.1;;;24.2;;
51194;SDS011;37259;49.972;19.850;2023-03-01T05:04:42;38.1;;;24.2;;
51194;SDS011;37259;49.972;19.850;2023-03-01T05:05:42;38.1;;;24.2;;
51194;SDS011;37259;49.972;19.850;2023-03-01T05:06:42;38.1;;;24.2;;
51194;SDS011;37259;49.972;19.850;2023-03-01T05:07:42;38.1;;;24.2;;
51194;SDS011;37259;49.972;19.850;2023-03-01T05:08:42;38.1;;;24.2;;
51194;SDS011;37259;49.972;19.850;2023-03-01T05:09:42;38.1;;;24.2;;
51194;SDS011;37259;49.972;19.850;2023-03-01T05:10:42;38.1;;;24.2;;
51194;SDS011;37259;49.972;19.850;2023-03-01T05:11:42;38.1;;;24.2;;
51194;SDS011;37259;49.972;19.850;2023-03-01T05:12:42;38.1;;;24.2;;
51194;SDS011;37259;49.972;19.850;2023-03-01T05:13:42;38.1;;;24.2;;
51194;SDS011;37259;49.972;19.850;2023-03-01T05:14:42;38.1;;;24.2;;
51194;SDS011;37259;49.972;19.850;2023-03-01T05:15:42;38.1;;;24.2;;
51194;SDS011;37259;49.972;19.850;2023-03-01T05:16:42;39.7;;;22.7;;
51194;SDS011;37259;49.972;19.850;2023-03-01T05:17:42;39.7;;;22.7;;
51194;SDS011;37259;49.972;19.850;2023-03-01T05:18:42;39.7;;;22.7;;
51194;SDS011;37259;49.972;19.850;2023-03-01T05:19:42;39.7;;;22.7;;
51194;SDS011;37259;49.972;19.850;2023-03-01T05:20:42;39.7;;;22.7;;
51194;SDS011;37259;49.972;19.850;2023-03-01T05:21:42;39.7;;;22.7;;
51194;SDS011;37259;49.972;19.850;2023-03-01T05:22:42;39.7;;;22.7;;
51194;SDS011;37259;49.972;19.850;2023-03-01T05:23:42;39.7;;;22.7;;
51194;SDS011;37259;49.972;19.850;2023-03-01T05:24:42;39.7;;;22.7;;
51194;SDS011;37259;49.972;19.850;2023-03-01T05:25:42;39.7;;;22.7;;
51194;SDS011;37259;49.972;19.850;2023-03-01T05:26:42;39.7;;;22.7;;
51194;SDS011;37259;49.972;19.850;2023-03-01T05:27:42;39.7;;;22.7;;
51194;SDS011;37259;49.972;19.850;2023-03-01T05:28:42;39.7;;;22.7;;
51194;SDS011;37259;49.972;19.850;2023-03-01T05:29:42;39.7;;;22.7;;
51194;SDS011;37259;49.972;19.850;2023-03-01T05:30:42;39.7;;;22.7;;
51194;SDS011;37259;49.972;19.850;2023-03-01T05:31:42;39.7;;;22.7;;
51194;SDS011;37259;49.972;19.850;2023-03-01T05:32:42;39.7;;;22.7;;
51194;SDS011;37259;49.972;19.850;2023-03-01T05:33:42;39.7;;;22.7;;
51194;SDS011;37259;49.972;19.850;2023-03-01T05:34:42;39.7;;;22.7;;
51194;SDS011;37259;49.972;19.850;2023-03-01T05:35:42;39.7;;;22.7;;
51194;SDS011;37259;49.972;19.850;2023-03-01T05:36:42;39.7;;;22.7;;
51194;SDS011;37259;49.972;19.850;2023-03-01T05:37:42;39.7;;;22.7;;
51194;SDS011;37259;49.972;19.850;2023-03-01T05:38:42;39.7;;;22.7;;
51194;SDS011;37259;49.972;19.850;2023-03-01T05:39:42;39.7;;;22.7;;
51194;SDS011;37259;49.972;19.850;2023-03-01T05:40:42;39.7;;;22.7;;
51194;SDS011;37259;49.972;19.850;2023-03-01T05:41:42;39.7;;;22.7;;
51194;SDS011;37259;49.972;19.850;2023-03-01T05:42:42;39.7;;;22.7;;
51194;SDS011;37259;49.972;19.850;2023-03-01T05:43:42;39.7;;;22.7;;
51194;SDS011;37259;49.972;19.850;2023-03-01T05:44:42;39.7;;;22.7;;
51194;SDS011;37259;49.972;19.850;2023-03-01T05:45:42;39.7;;;22.7;;
51194;SDS011;37259;49.972;19.850;2023-03-01T05:46:42;34.9;;;22.1;;
51194;SDS011;37259;49.972;19.850;2023-03-01T05:47:42;34.9;;;22.1;;
51194;SDS011;37259;49.972;19.850;2023-03-01T05:48:42;34.9;;;22.1;;
51194;SDS011;37259;49.972;19.850;2023-03-01T05:49:42;34.9;;;22.1;;
51194;SDS011;37259;49.972;19.850;2023-03-01T05:50:43;34.9;;;22.1;;
51194;SDS011;37259;49.972;19.850;2023-03-01T05:51:42;34.9;;;22.1;;
51194;SDS011;37259;49.972;19.850;2023-03-01T05:52:42;34.9;;;22.1;;
51194;SDS011;37259;49.972;19.850;2023-03-01T05:53:42;34.9;;;22.1;;
51194;SDS011;37259;49.972;19.850;2023-03-01T05:54:42;34.9;;;22.1;;
51194;SDS011;37259;49.972;19.850;2023-03-01T05:55:42;34.9;;;22.1;;
51194;SDS011;37259;49.972;19.850;2023-03-01T05:56:42;34.9;;;22.1;;
51194;SDS011;37259;49.972;19.850;2023-03-01T05:57:42;34.9;;;22.1;;
51194;SDS011;37259;49.972;19.850;2023-03-01T05:58:42;34.9;;;22.1;;
51194;SDS011;37259;49.972;19.850;2023-03-01T05:59:42;34.9;;;22.1;;